sensor_id;sensor_type;location;lat;lon;timestamp;pressure;altitude;pressure_sealevel;temperature;humidity
57801;BME280;43627;42.728;23.256;2023-04-27T00:01:12;94691.34;;;6.21;67.37
57801;BME280;43627;42.728;23.256;2023-04-27T00:03:39;94681.50;;;6.14;68.45
57801;BME280;43627;42.728;23.256;2023-04-27T00:06:07;94694.19;;;6.17;69.24
57801;BME280;43627;42.728;23.256;2023-04-27T00:08:35;94700.38;;;6.05;71.21
57801;BME280;43627;42.728;23.256;2023-04-27T00:11:02;94696.69;;;6.12;70.61
57801;BME280;43627;42.728;23.256;2023-04-27T00:13:29;94702.16;;;5.99;69.59
57801;BME280;43627;42.728;23.256;2023-04-27T00:15:55;94692.53;;;5.98;69.94
57801;BME280;43627;42.728;23.256;2023-04-27T00:18:22;94706.59;;;5.93;70.55
57801;BME280;43627;42.728;23.256;2023-04-27T00:20:49;94703.13;;;5.92;71.83
57801;BME280;43627;42.728;23.256;2023-04-27T00:23:16;94694.28;;;5.79;71.70
57801;BME280;43627;42.728;23.256;2023-04-27T00:25:42;94712.34;;;5.82;73.72
57801;BME280;43627;42.728;23.256;2023-04-27T00:28:09;94704.66;;;5.81;73.84
57801;BME280;43627;42.728;23.256;2023-04-27T00:30:36;94706.09;;;5.72;73.60
57801;BME280;43627;42.728;23.256;2023-04-27T00:33:02;94709.13;;;5.62;74.93
57801;BME280;43627;42.728;23.256;2023-04-27T00:35:31;94702.84;;;5.65;74.85
57801;BME280;43627;42.728;23.256;2023-04-27T00:37:58;94706.00;;;5.63;74.90
57801;BME280;43627;42.728;23.256;2023-04-27T00:40:25;94702.31;;;5.57;74.56
57801;BME280;43627;42.728;23.256;2023-04-27T00:42:51;94708.28;;;5.52;75.27
57801;BME280;43627;42.728;23.256;2023-04-27T00:45:18;94706.03;;;5.51;75.34
57801;BME280;43627;42.728;23.256;2023-04-27T00:47:45;94690.22;;;5.36;75.49
57801;BME280;43627;42.728;23.256;2023-04-27T00:50:12;94710.13;;;5.42;75.92
57801;BME280;43627;42.728;23.256;2023-04-27T00:52:40;94713.03;;;5.48;75.25
57801;BME280;43627;42.728;23.256;2023-04-27T00:55:07;94681.25;;;5.27;76.16
57801;BME280;43627;42.728;23.256;2023-04-27T00:57:34;94696.97;;;5.32;76.50
57801;BME280;43627;42.728;23.256;2023-04-27T01:00:02;94716.06;;;5.37;77.81
57801;BME280;43627;42.728;23.256;2023-04-27T01:02:31;94708.19;;;5.30;76.45
57801;BME280;43627;42.728;23.256;2023-04-27T01:04:58;94713.06;;;5.23;77.50
57801;BME280;43627;42.728;23.256;2023-04-27T01:07:26;94698.25;;;5.14;79.20
57801;BME280;43627;42.728;23.256;2023-04-27T01:09:53;94726.91;;;5.25;77.60
57801;BME280;43627;42.728;23.256;2023-04-27T01:12:19;94735.44;;;5.23;78.58
57801;BME280;43627;42.728;23.256;2023-04-27T01:14:46;94723.09;;;5.09;79.25
57801;BME280;43627;42.728;23.256;2023-04-27T01:17:13;94718.56;;;5.06;79.68
57801;BME280;43627;42.728;23.256;2023-04-27T01:19:40;94717.06;;;5.05;79.49
57801;BME280;43627;42.728;23.256;2023-04-27T01:22:06;94718.69;;;5.03;79.72
57801;BME280;43627;42.728;23.256;2023-04-27T01:24:33;94721.72;;;5.05;80.60
57801;BME280;43627;42.728;23.256;2023-04-27T01:27:00;94712.41;;;5.06;80.84
57801;BME280;43627;42.728;23.256;2023-04-27T01:29:27;94723.34;;;5.02;81.59
57801;BME280;43627;42.728;23.256;2023-04-27T01:31:54;94731.53;;;4.99;81.19
57801;BME280;43627;42.728;23.256;2023-04-27T01:34:21;94731.53;;;4.99;80.93
57801;BME280;43627;42.728;23.256;2023-04-27T01:36:48;94734.53;;;4.88;81.72
57801;BME280;43627;42.728;23.256;2023-04-27T01:39:15;94727.50;;;4.78;82.38
57801;BME280;43627;42.728;23.256;2023-04-27T01:41:41;94737.00;;;4.82;81.76
57801;BME280;43627;42.728;23.256;2023-04-27T01:44:08;94732.03;;;4.81;81.84
57801;BME280;43627;42.728;23.256;2023-04-27T01:46:35;94733.34;;;4.76;82.80
57801;BME280;43627;42.728;23.256;2023-04-27T01:49:02;94740.91;;;4.81;82.82
57801;BME280;43627;42.728;23.256;2023-04-27T01:51:28;94723.59;;;4.66;82.14
57801;BME280;43627;42.728;23.256;2023-04-27T01:53:55;94743.47;;;4.72;82.39
57801;BME280;43627;42.728;23.256;2023-04-27T01:56:22;94729.75;;;4.67;82.31
57801;BME280;43627;42.728;23.256;2023-04-27T01:58:48;94738.81;;;4.73;82.44
57801;BME280;43627;42.728;23.256;2023-04-27T02:01:15;94732.66;;;4.72;82.46
57801;BME280;43627;42.728;23.256;2023-04-27T02:03:42;94744.00;;;4.67;82.29
57801;BME280;43627;42.728;23.256;2023-04-27T02:06:09;94739.13;;;4.62;82.32
57801;BME280;43627;42.728;23.256;2023-04-27T02:08:36;94725.16;;;4.51;83.76
57801;BME280;43627;42.728;23.256;2023-04-27T02:11:02;94746.59;;;4.58;83.89
57801;BME280;43627;42.728;23.256;2023-04-27T02:13:29;94747.84;;;4.53;83.53
57801;BME280;43627;42.728;23.256;2023-04-27T02:15:55;94738.16;;;4.56;84.90
57801;BME280;43627;42.728;23.256;2023-04-27T02:18:22;94739.84;;;4.50;84.44
57801;BME280;43627;42.728;23.256;2023-04-27T02:20:50;94747.00;;;4.56;85.60
57801;BME280;43627;42.728;23.256;2023-04-27T02:23:16;94744.81;;;4.51;85.71
57801;BME280;43627;42.728;23.256;2023-04-27T02:25:43;94726.19;;;4.28;84.74
57801;BME280;43627;42.728;23.256;2023-04-27T02:28:12;94746.44;;;4.49;87.06
57801;BME280;43627;42.728;23.256;2023-04-27T02:30:40;94743.28;;;4.38;86.26
57801;BME280;43627;42.728;23.256;2023-04-27T02:33:06;94759.69;;;4.43;86.80
57801;BME280;43627;42.728;23.256;2023-04-27T02:35:33;94755.91;;;4.41;88.13
57801;BME280;43627;42.728;23.256;2023-04-27T02:38:00;94757.28;;;4.33;86.08
57801;BME280;43627;42.728;23.256;2023-04-27T02:40:27;94743.50;;;4.14;86.60
57801;BME280;43627;42.728;23.256;2023-04-27T02:42:53;94761.16;;;4.32;88.49
57801;BME280;43627;42.728;23.256;2023-04-27T02:45:20;94755.94;;;4.24;87.25
57801;BME280;43627;42.728;23.256;2023-04-27T02:47:47;94760.09;;;4.29;89.69
57801;BME280;43627;42.728;23.256;2023-04-27T02:50:14;94763.28;;;4.24;86.78
57801;BME280;43627;42.728;23.256;2023-04-27T02:52:41;94761.78;;;4.23;86.23
57801;BME280;43627;42.728;23.256;2023-04-27T02:55:08;94764.66;;;4.16;86.98
57801;BME280;43627;42.728;23.256;2023-04-27T02:57:34;94757.75;;;4.15;89.06
57801;BME280;43627;42.728;23.256;2023-04-27T03:00:03;94756.34;;;4.10;88.34
57801;BME280;43627;42.728;23.256;2023-04-27T03:02:32;94754.47;;;4.07;88.56
57801;BME280;43627;42.728;23.256;2023-04-27T03:04:59;94763.75;;;4.06;89.73
57801;BME280;43627;42.728;23.256;2023-04-27T03:07:26;94766.97;;;4.01;89.34
57801;BME280;43627;42.728;23.256;2023-04-27T03:09:54;94761.84;;;3.90;91.39
57801;BME280;43627;42.728;23.256;2023-04-27T03:12:21;94766.75;;;3.79;92.22
57801;BME280;43627;42.728;23.256;2023-04-27T03:14:47;94757.38;;;3.84;92.69
57801;BME280;43627;42.728;23.256;2023-04-27T03:17:14;94779.72;;;3.84;92.55
57801;BME280;43627;42.728;23.256;2023-04-27T03:19:41;94767.56;;;3.76;93.22
57801;BME280;43627;42.728;23.256;2023-04-27T03:22:08;94779.53;;;3.75;94.09
57801;BME280;43627;42.728;23.256;2023-04-27T03:24:35;94774.16;;;3.75;93.60
57801;BME280;43627;42.728;23.256;2023-04-27T03:27:02;94763.72;;;3.61;93.22
57801;BME280;43627;42.728;23.256;2023-04-27T03:29:28;94786.59;;;3.69;94.41
57801;BME280;43627;42.728;23.256;2023-04-27T03:31:55;94790.25;;;3.62;95.53
57801;BME280;43627;42.728;23.256;2023-04-27T03:34:22;94772.44;;;3.49;95.70
57801;BME280;43627;42.728;23.256;2023-04-27T03:36:49;94787.56;;;3.62;95.87
57801;BME280;43627;42.728;23.256;2023-04-27T03:39:16;94790.59;;;3.64;96.75
57801;BME280;43627;42.728;23.256;2023-04-27T03:41:43;94797.41;;;3.69;96.77
57801;BME280;43627;42.728;23.256;2023-04-27T03:44:10;94795.13;;;3.67;95.67
57801;BME280;43627;42.728;23.256;2023-04-27T03:46:36;94787.22;;;3.60;95.65
57801;BME280;43627;42.728;23.256;2023-04-27T03:49:03;94801.03;;;3.62;94.97
57801;BME280;43627;42.728;23.256;2023-04-27T03:51:30;94798.94;;;3.70;94.49
57801;BME280;43627;42.728;23.256;2023-04-27T03:54:00;94802.88;;;3.65;93.98
57801;BME280;43627;42.728;23.256;2023-04-27T03:56:27;94786.63;;;3.53;94.14
57801;BME280;43627;42.728;23.256;2023-04-27T03:58:53;94812.00;;;3.71;94.31
57801;BME280;43627;42.728;23.256;2023-04-27T04:01:20;94819.22;;;3.75;93.32
57801;BME280;43627;42.728;23.256;2023-04-27T04:03:47;94814.59;;;3.75;93.52
57801;BME280;43627;42.728;23.256;2023-04-27T04:06:14;94821.50;;;3.76;92.66
57801;BME280;43627;42.728;23.256;2023-04-27T04:08:41;94824.13;;;3.80;94.51
57801;BME280;43627;42.728;23.256;2023-04-27T04:11:07;94821.00;;;3.81;93.77
57801;BME280;43627;42.728;23.256;2023-04-27T04:13:34;94837.69;;;3.76;95.42
57801;BME280;43627;42.728;23.256;2023-04-27T04:16:06;94831.38;;;3.83;94.66
57801;BME280;43627;42.728;23.256;2023-04-27T04:18:35;94840.81;;;3.91;92.82
57801;BME280;43627;42.728;23.256;2023-04-27T04:21:02;94841.31;;;4.02;92.35
57801;BME280;43627;42.728;23.256;2023-04-27T04:23:29;94845.03;;;4.08;91.90
57801;BME280;43627;42.728;23.256;2023-04-27T04:25:55;94838.38;;;4.13;91.21
57801;BME280;43627;42.728;23.256;2023-04-27T04:28:23;94841.06;;;4.13;90.87
57801;BME280;43627;42.728;23.256;2023-04-27T04:30:50;94843.66;;;4.16;92.09
57801;BME280;43627;42.728;23.256;2023-04-27T04:33:17;94843.75;;;4.29;91.43
57801;BME280;43627;42.728;23.256;2023-04-27T04:35:44;94856.22;;;4.39;91.34
57801;BME280;43627;42.728;23.256;2023-04-27T04:38:12;94860.00;;;4.42;89.02
57801;BME280;43627;42.728;23.256;2023-04-27T04:40:39;94855.63;;;4.48;89.11
57801;BME280;43627;42.728;23.256;2023-04-27T04:43:10;94865.22;;;4.65;88.89
57801;BME280;43627;42.728;23.256;2023-04-27T04:45:37;94860.72;;;4.75;86.50
57801;BME280;43627;42.728;23.256;2023-04-27T04:48:04;94867.03;;;5.26;82.94
57801;BME280;43627;42.728;23.256;2023-04-27T04:50:34;94859.22;;;5.95;78.20
57801;BME280;43627;42.728;23.256;2023-04-27T04:53:01;94868.38;;;6.83;69.97
57801;BME280;43627;42.728;23.256;2023-04-27T04:55:27;94869.13;;;7.50;64.63
57801;BME280;43627;42.728;23.256;2023-04-27T04:57:54;94871.31;;;8.35;62.56
57801;BME280;43627;42.728;23.256;2023-04-27T05:00:21;94882.56;;;9.01;57.04
57801;BME280;43627;42.728;23.256;2023-04-27T05:02:48;94873.78;;;9.06;56.87
57801;BME280;43627;42.728;23.256;2023-04-27T05:05:15;94883.75;;;9.09;55.89
57801;BME280;43627;42.728;23.256;2023-04-27T05:07:42;94885.84;;;8.78;56.10
57801;BME280;43627;42.728;23.256;2023-04-27T05:10:09;94872.91;;;7.83;57.34
57801;BME280;43627;42.728;23.256;2023-04-27T05:12:36;94879.16;;;7.18;59.13
57801;BME280;43627;42.728;23.256;2023-04-27T05:15:03;94888.28;;;6.90;61.16
57801;BME280;43627;42.728;23.256;2023-04-27T05:17:30;94887.19;;;6.87;63.82
57801;BME280;43627;42.728;23.256;2023-04-27T05:19:56;94883.81;;;6.61;63.94
57801;BME280;43627;42.728;23.256;2023-04-27T05:22:23;94890.72;;;6.27;65.46
57801;BME280;43627;42.728;23.256;2023-04-27T05:24:50;94898.94;;;6.37;66.81
57801;BME280;43627;42.728;23.256;2023-04-27T05:27:17;94895.66;;;6.42;67.98
57801;BME280;43627;42.728;23.256;2023-04-27T05:29:44;94895.31;;;6.52;68.36
57801;BME280;43627;42.728;23.256;2023-04-27T05:32:10;94896.50;;;6.64;67.02
57801;BME280;43627;42.728;23.256;2023-04-27T05:34:37;94900.19;;;6.57;66.62
57801;BME280;43627;42.728;23.256;2023-04-27T05:37:03;94888.59;;;6.57;66.02
57801;BME280;43627;42.728;23.256;2023-04-27T05:39:30;94901.84;;;6.42;66.93
57801;BME280;43627;42.728;23.256;2023-04-27T05:41:57;94904.75;;;6.48;66.66
57801;BME280;43627;42.728;23.256;2023-04-27T05:44:24;94910.09;;;6.26;66.34
57801;BME280;43627;42.728;23.256;2023-04-27T05:46:54;94912.25;;;6.31;68.72
57801;BME280;43627;42.728;23.256;2023-04-27T05:49:22;94895.69;;;6.29;67.51
57801;BME280;43627;42.728;23.256;2023-04-27T05:51:48;94908.56;;;6.38;67.41
57801;BME280;43627;42.728;23.256;2023-04-27T05:54:15;94897.50;;;6.45;67.50
57801;BME280;43627;42.728;23.256;2023-04-27T05:56:42;94912.69;;;6.29;68.82
57801;BME280;43627;42.728;23.256;2023-04-27T05:59:08;94909.00;;;6.36;66.92
57801;BME280;43627;42.728;23.256;2023-04-27T06:01:35;94906.22;;;6.62;65.09
57801;BME280;43627;42.728;23.256;2023-04-27T06:04:02;94902.66;;;6.65;64.21
57801;BME280;43627;42.728;23.256;2023-04-27T06:06:30;94900.66;;;6.78;64.09
57801;BME280;43627;42.728;23.256;2023-04-27T06:08:57;94906.19;;;6.87;64.79
57801;BME280;43627;42.728;23.256;2023-04-27T06:11:24;94915.66;;;7.04;63.98
57801;BME280;43627;42.728;23.256;2023-04-27T06:13:51;94907.22;;;7.46;61.04
57801;BME280;43627;42.728;23.256;2023-04-27T06:16:17;94919.28;;;7.76;61.63
57801;BME280;43627;42.728;23.256;2023-04-27T06:18:44;94909.13;;;7.89;58.55
57801;BME280;43627;42.728;23.256;2023-04-27T06:21:11;94902.91;;;7.80;58.34
57801;BME280;43627;42.728;23.256;2023-04-27T06:23:37;94895.25;;;7.65;57.92
57801;BME280;43627;42.728;23.256;2023-04-27T06:26:04;94903.16;;;7.72;58.30
57801;BME280;43627;42.728;23.256;2023-04-27T06:28:31;94898.38;;;7.86;57.41
57801;BME280;43627;42.728;23.256;2023-04-27T06:30:58;94903.63;;;8.11;57.09
57801;BME280;43627;42.728;23.256;2023-04-27T06:33:24;94893.47;;;8.02;56.76
57801;BME280;43627;42.728;23.256;2023-04-27T06:35:51;94888.19;;;7.99;56.07
57801;BME280;43627;42.728;23.256;2023-04-27T06:38:18;94888.06;;;7.71;56.59
57801;BME280;43627;42.728;23.256;2023-04-27T06:40:49;94890.69;;;8.15;55.52
57801;BME280;43627;42.728;23.256;2023-04-27T06:43:15;94890.03;;;8.51;54.57
57801;BME280;43627;42.728;23.256;2023-04-27T06:45:42;94889.94;;;8.73;53.76
57801;BME280;43627;42.728;23.256;2023-04-27T06:48:09;94892.97;;;9.21;53.14
57801;BME280;43627;42.728;23.256;2023-04-27T06:50:35;94884.19;;;9.35;50.86
57801;BME280;43627;42.728;23.256;2023-04-27T06:53:02;94888.53;;;9.69;51.72
57801;BME280;43627;42.728;23.256;2023-04-27T06:55:29;94879.97;;;9.95;49.52
57801;BME280;43627;42.728;23.256;2023-04-27T06:57:56;94895.75;;;9.82;50.25
57801;BME280;43627;42.728;23.256;2023-04-27T07:00:22;94888.31;;;9.91;49.61
57801;BME280;43627;42.728;23.256;2023-04-27T07:02:49;94887.97;;;9.98;49.78
57801;BME280;43627;42.728;23.256;2023-04-27T07:05:17;94884.88;;;10.24;49.25
57801;BME280;43627;42.728;23.256;2023-04-27T07:07:44;94867.72;;;10.33;49.56
57801;BME280;43627;42.728;23.256;2023-04-27T07:10:11;94876.25;;;10.16;48.68
57801;BME280;43627;42.728;23.256;2023-04-27T07:12:38;94884.91;;;10.48;47.87
57801;BME280;43627;42.728;23.256;2023-04-27T07:15:06;94883.53;;;10.52;47.36
57801;BME280;43627;42.728;23.256;2023-04-27T07:17:33;94887.53;;;10.42;48.52
57801;BME280;43627;42.728;23.256;2023-04-27T07:20:00;94860.81;;;10.22;47.44
57801;BME280;43627;42.728;23.256;2023-04-27T07:22:28;94885.09;;;10.68;45.84
57801;BME280;43627;42.728;23.256;2023-04-27T07:24:54;94870.84;;;10.40;45.85
57801;BME280;43627;42.728;23.256;2023-04-27T07:27:21;94878.53;;;10.51;47.01
57801;BME280;43627;42.728;23.256;2023-04-27T07:29:48;94892.97;;;10.66;45.83
57801;BME280;43627;42.728;23.256;2023-04-27T07:32:14;94885.31;;;10.55;45.12
57801;BME280;43627;42.728;23.256;2023-04-27T07:34:41;94889.03;;;10.43;45.64
57801;BME280;43627;42.728;23.256;2023-04-27T07:37:19;94889.88;;;10.97;45.73
57801;BME280;43627;42.728;23.256;2023-04-27T07:39:50;94876.56;;;10.75;44.92
57801;BME280;43627;42.728;23.256;2023-04-27T07:42:20;94876.78;;;10.39;45.27
57801;BME280;43627;42.728;23.256;2023-04-27T07:44:50;94887.44;;;10.18;47.50
57801;BME280;43627;42.728;23.256;2023-04-27T07:47:18;94879.75;;;10.50;46.37
57801;BME280;43627;42.728;23.256;2023-04-27T07:49:45;94881.72;;;10.73;46.12
57801;BME280;43627;42.728;23.256;2023-04-27T07:52:12;94880.88;;;11.06;44.36
57801;BME280;43627;42.728;23.256;2023-04-27T07:54:39;94886.47;;;10.87;44.52
57801;BME280;43627;42.728;23.256;2023-04-27T07:57:10;94875.34;;;11.15;45.21
57801;BME280;43627;42.728;23.256;2023-04-27T07:59:37;94879.34;;;11.43;43.69
57801;BME280;43627;42.728;23.256;2023-04-27T08:02:04;94871.00;;;11.91;43.24
57801;BME280;43627;42.728;23.256;2023-04-27T08:04:44;94878.50;;;12.11;42.54
57801;BME280;43627;42.728;23.256;2023-04-27T08:07:13;94878.38;;;12.70;42.57
57801;BME280;43627;42.728;23.256;2023-04-27T08:09:40;94868.44;;;12.02;41.77
57801;BME280;43627;42.728;23.256;2023-04-27T08:12:07;94883.97;;;12.26;42.21
57801;BME280;43627;42.728;23.256;2023-04-27T08:14:34;94879.09;;;12.15;41.30
57801;BME280;43627;42.728;23.256;2023-04-27T08:17:01;94878.88;;;12.19;41.62
57801;BME280;43627;42.728;23.256;2023-04-27T08:19:28;94877.06;;;12.66;41.81
57801;BME280;43627;42.728;23.256;2023-04-27T08:21:54;94873.81;;;12.82;41.10
57801;BME280;43627;42.728;23.256;2023-04-27T08:24:21;94879.38;;;12.52;42.48
57801;BME280;43627;42.728;23.256;2023-04-27T08:26:48;94887.66;;;12.08;41.46
57801;BME280;43627;42.728;23.256;2023-04-27T08:29:14;94878.34;;;12.00;42.47
57801;BME280;43627;42.728;23.256;2023-04-27T08:31:53;94867.75;;;11.19;44.58
57801;BME280;43627;42.728;23.256;2023-04-27T08:34:22;94880.38;;;10.93;45.50
57801;BME280;43627;42.728;23.256;2023-04-27T08:36:49;94878.75;;;11.10;45.88
57801;BME280;43627;42.728;23.256;2023-04-27T08:39:16;94878.00;;;10.85;44.98
57801;BME280;43627;42.728;23.256;2023-04-27T08:41:44;94879.06;;;10.64;44.93
57801;BME280;43627;42.728;23.256;2023-04-27T08:44:11;94886.59;;;10.69;45.18
57801;BME280;43627;42.728;23.256;2023-04-27T08:46:38;94871.59;;;11.12;45.41
57801;BME280;43627;42.728;23.256;2023-04-27T08:49:05;94876.63;;;11.29;45.69
57801;BME280;43627;42.728;23.256;2023-04-27T08:51:33;94873.06;;;11.67;43.30
57801;BME280;43627;42.728;23.256;2023-04-27T08:54:01;94872.50;;;11.92;44.85
57801;BME280;43627;42.728;23.256;2023-04-27T08:56:29;94866.09;;;11.66;43.16
57801;BME280;43627;42.728;23.256;2023-04-27T08:58:56;94853.38;;;11.48;44.41
57801;BME280;43627;42.728;23.256;2023-04-27T09:01:24;94873.25;;;11.49;44.35
57801;BME280;43627;42.728;23.256;2023-04-27T09:03:59;94883.00;;;11.26;43.87
57801;BME280;43627;42.728;23.256;2023-04-27T09:06:33;94867.16;;;11.15;44.11
57801;BME280;43627;42.728;23.256;2023-04-27T09:09:01;94868.03;;;11.36;44.48
57801;BME280;43627;42.728;23.256;2023-04-27T09:14:14;94870.22;;;11.32;44.35
57801;BME280;43627;42.728;23.256;2023-04-27T09:16:41;94864.94;;;11.28;43.44
57801;BME280;43627;42.728;23.256;2023-04-27T09:19:09;94858.84;;;11.48;43.94
57801;BME280;43627;42.728;23.256;2023-04-27T09:21:37;94868.16;;;11.71;43.48
57801;BME280;43627;42.728;23.256;2023-04-27T09:24:11;94855.91;;;11.52;43.38
57801;BME280;43627;42.728;23.256;2023-04-27T09:26:40;94860.44;;;11.55;44.30
57801;BME280;43627;42.728;23.256;2023-04-27T09:29:14;94852.91;;;11.50;43.67
57801;BME280;43627;42.728;23.256;2023-04-27T09:31:41;94862.44;;;11.69;42.95
57801;BME280;43627;42.728;23.256;2023-04-27T09:34:08;94855.84;;;11.61;42.33
57801;BME280;43627;42.728;23.256;2023-04-27T09:36:35;94862.53;;;11.60;42.29
57801;BME280;43627;42.728;23.256;2023-04-27T09:39:03;94842.72;;;11.35;42.88
57801;BME280;43627;42.728;23.256;2023-04-27T09:41:31;94835.47;;;11.32;43.87
57801;BME280;43627;42.728;23.256;2023-04-27T09:43:58;94838.78;;;11.36;42.81
57801;BME280;43627;42.728;23.256;2023-04-27T09:46:28;94843.13;;;11.28;42.97
57801;BME280;43627;42.728;23.256;2023-04-27T09:48:55;94811.88;;;11.59;43.07
57801;BME280;43627;42.728;23.256;2023-04-27T09:51:23;94823.63;;;11.50;42.59
57801;BME280;43627;42.728;23.256;2023-04-27T09:53:55;94855.44;;;11.53;42.12
57801;BME280;43627;42.728;23.256;2023-04-27T10:01:46;94845.94;;;11.63;41.70
57801;BME280;43627;42.728;23.256;2023-04-27T10:06:57;94836.03;;;12.10;40.83
57801;BME280;43627;42.728;23.256;2023-04-27T10:09:26;94829.94;;;12.56;41.60
57801;BME280;43627;42.728;23.256;2023-04-27T10:11:56;94831.78;;;13.05;39.85
57801;BME280;43627;42.728;23.256;2023-04-27T10:14:23;94845.25;;;13.09;39.37
57801;BME280;43627;42.728;23.256;2023-04-27T10:16:55;94836.31;;;13.34;38.58
57801;BME280;43627;42.728;23.256;2023-04-27T10:19:23;94827.19;;;14.00;38.78
57801;BME280;43627;42.728;23.256;2023-04-27T10:21:57;94802.47;;;13.63;39.04
57801;BME280;43627;42.728;23.256;2023-04-27T10:24:39;94823.94;;;13.65;37.20
57801;BME280;43627;42.728;23.256;2023-04-27T10:27:10;94822.63;;;12.88;38.05
57801;BME280;43627;42.728;23.256;2023-04-27T10:29:43;94817.44;;;12.90;39.15
57801;BME280;43627;42.728;23.256;2023-04-27T10:32:24;94824.59;;;12.87;38.44
57801;BME280;43627;42.728;23.256;2023-04-27T10:35:04;94818.72;;;13.41;38.84
57801;BME280;43627;42.728;23.256;2023-04-27T10:37:41;94826.88;;;13.61;37.66
57801;BME280;43627;42.728;23.256;2023-04-27T10:40:11;94819.91;;;13.34;36.88
57801;BME280;43627;42.728;23.256;2023-04-27T10:42:44;94822.94;;;13.36;37.40
57801;BME280;43627;42.728;23.256;2023-04-27T10:45:11;94815.56;;;13.48;37.18
57801;BME280;43627;42.728;23.256;2023-04-27T10:47:42;94817.41;;;13.62;37.50
57801;BME280;43627;42.728;23.256;2023-04-27T10:50:11;94832.19;;;14.02;37.49
57801;BME280;43627;42.728;23.256;2023-04-27T10:52:40;94817.91;;;13.92;36.94
57801;BME280;43627;42.728;23.256;2023-04-27T10:55:18;94830.25;;;13.77;36.14
57801;BME280;43627;42.728;23.256;2023-04-27T10:57:47;94841.56;;;13.58;36.44
57801;BME280;43627;42.728;23.256;2023-04-27T11:00:22;94836.47;;;13.46;37.60
57801;BME280;43627;42.728;23.256;2023-04-27T11:02:50;94829.34;;;13.33;37.28
57801;BME280;43627;42.728;23.256;2023-04-27T11:05:21;94831.78;;;13.05;37.60
57801;BME280;43627;42.728;23.256;2023-04-27T11:07:50;94833.03;;;12.84;37.87
57801;BME280;43627;42.728;23.256;2023-04-27T11:10:18;94819.72;;;12.97;37.84
57801;BME280;43627;42.728;23.256;2023-04-27T11:12:45;94826.47;;;12.76;37.45
57801;BME280;43627;42.728;23.256;2023-04-27T11:15:12;94817.56;;;12.81;38.31
57801;BME280;43627;42.728;23.256;2023-04-27T11:17:39;94812.88;;;13.07;37.96
57801;BME280;43627;42.728;23.256;2023-04-27T11:20:07;94820.94;;;12.70;38.86
57801;BME280;43627;42.728;23.256;2023-04-27T11:22:44;94783.50;;;12.21;38.77
57801;BME280;43627;42.728;23.256;2023-04-27T11:25:12;94837.25;;;12.44;38.37
57801;BME280;43627;42.728;23.256;2023-04-27T11:27:39;94770.44;;;12.10;38.81
57801;BME280;43627;42.728;23.256;2023-04-27T11:30:20;94827.69;;;12.75;38.96
57801;BME280;43627;42.728;23.256;2023-04-27T11:32:48;94847.94;;;13.03;38.87
57801;BME280;43627;42.728;23.256;2023-04-27T11:35:16;94826.09;;;13.09;37.22
57801;BME280;43627;42.728;23.256;2023-04-27T11:37:43;94837.75;;;12.83;37.45
57801;BME280;43627;42.728;23.256;2023-04-27T11:40:13;94828.03;;;12.82;38.39
57801;BME280;43627;42.728;23.256;2023-04-27T11:42:41;94827.56;;;12.84;39.21
57801;BME280;43627;42.728;23.256;2023-04-27T11:45:10;94833.38;;;12.51;38.49
57801;BME280;43627;42.728;23.256;2023-04-27T11:47:38;94836.03;;;12.45;38.62
57801;BME280;43627;42.728;23.256;2023-04-27T11:50:08;94819.47;;;12.75;38.26
57801;BME280;43627;42.728;23.256;2023-04-27T11:52:36;94836.88;;;12.72;38.68
57801;BME280;43627;42.728;23.256;2023-04-27T11:55:04;94833.03;;;12.84;38.07
57801;BME280;43627;42.728;23.256;2023-04-27T11:57:32;94837.22;;;13.46;38.37
57801;BME280;43627;42.728;23.256;2023-04-27T12:00:01;94827.84;;;13.58;36.99
57801;BME280;43627;42.728;23.256;2023-04-27T12:02:29;94839.72;;;13.76;37.76
57801;BME280;43627;42.728;23.256;2023-04-27T12:04:57;94837.72;;;13.76;36.36
57801;BME280;43627;42.728;23.256;2023-04-27T12:07:25;94836.91;;;13.44;36.12
57801;BME280;43627;42.728;23.256;2023-04-27T12:09:52;94836.13;;;13.38;36.54
57801;BME280;43627;42.728;23.256;2023-04-27T12:12:19;94838.78;;;13.84;36.81
57801;BME280;43627;42.728;23.256;2023-04-27T12:14:49;94840.53;;;14.19;36.15
57801;BME280;43627;42.728;23.256;2023-04-27T12:17:15;94831.38;;;14.27;35.81
57801;BME280;43627;42.728;23.256;2023-04-27T12:19:42;94833.03;;;14.14;36.41
57801;BME280;43627;42.728;23.256;2023-04-27T12:22:10;94845.03;;;13.59;36.61
57801;BME280;43627;42.728;23.256;2023-04-27T12:24:36;94845.22;;;13.81;36.28
57801;BME280;43627;42.728;23.256;2023-04-27T12:27:03;94832.59;;;13.58;36.28
57801;BME280;43627;42.728;23.256;2023-04-27T12:29:30;94840.00;;;13.83;38.18
57801;BME280;43627;42.728;23.256;2023-04-27T12:31:58;94820.97;;;13.68;35.97
57801;BME280;43627;42.728;23.256;2023-04-27T12:34:25;94847.72;;;13.79;36.63
57801;BME280;43627;42.728;23.256;2023-04-27T12:36:53;94848.06;;;13.92;36.59
57801;BME280;43627;42.728;23.256;2023-04-27T12:39:21;94847.34;;;13.40;37.72
57801;BME280;43627;42.728;23.256;2023-04-27T12:41:52;94853.84;;;13.68;36.50
57801;BME280;43627;42.728;23.256;2023-04-27T12:44:19;94847.88;;;13.44;36.75
57801;BME280;43627;42.728;23.256;2023-04-27T12:46:47;94838.09;;;12.91;37.45
57801;BME280;43627;42.728;23.256;2023-04-27T12:49:15;94840.97;;;12.82;38.00
57801;BME280;43627;42.728;23.256;2023-04-27T12:51:43;94846.44;;;12.82;39.98
57801;BME280;43627;42.728;23.256;2023-04-27T12:54:11;94841.50;;;13.27;38.38
57801;BME280;43627;42.728;23.256;2023-04-27T12:56:38;94833.75;;;13.25;36.90
57801;BME280;43627;42.728;23.256;2023-04-27T12:59:05;94848.03;;;13.14;37.03
57801;BME280;43627;42.728;23.256;2023-04-27T13:01:32;94833.97;;;13.01;37.31
57801;BME280;43627;42.728;23.256;2023-04-27T13:04:01;94853.41;;;13.24;37.35
57801;BME280;43627;42.728;23.256;2023-04-27T13:06:29;94837.66;;;13.44;37.36
57801;BME280;43627;42.728;23.256;2023-04-27T13:09:00;94832.00;;;13.48;36.47